createdAt,value
2022-11-15T00:01:18.001Z,15.37
2022-11-15T00:04:06.599Z,14.50
2022-11-15T00:06:55.815Z,15.97
2022-11-15T00:09:45.844Z,14.27
2022-11-15T00:12:31.309Z,14.50
2022-11-15T00:15:16.722Z,14.43
2022-11-15T00:18:02.026Z,16.03
2022-11-15T00:20:53.843Z,13.27
2022-11-15T00:23:40.324Z,15.87
2022-11-15T00:26:32.932Z,14.17
2022-11-15T00:29:18.381Z,14.53
2022-11-15T00:32:03.712Z,15.70
2022-11-15T00:34:49.063Z,15.97
2022-11-15T00:37:34.578Z,13.33
2022-11-15T00:40:19.791Z,15.57
2022-11-15T00:43:05.571Z,12.73
2022-11-15T00:45:50.897Z,14.87
2022-11-15T00:48:36.106Z,13.93
2022-11-15T00:51:21.366Z,15.63
2022-11-15T00:54:06.970Z,14.33
2022-11-15T00:56:52.093Z,13.27
2022-11-15T00:59:37.460Z,14.53
2022-11-15T01:02:23.151Z,12.40
2022-11-15T01:05:09.436Z,13.93
2022-11-15T01:07:57.295Z,13.60
2022-11-15T01:10:42.944Z,13.43
2022-11-15T01:13:31.676Z,12.93
2022-11-15T01:16:19.627Z,14.20
2022-11-15T01:19:04.839Z,13.17
2022-11-15T01:21:51.222Z,13.67
2022-11-15T01:24:36.916Z,11.87
2022-11-15T01:27:22.578Z,12.43
2022-11-15T01:30:09.292Z,14.50
2022-11-15T01:32:54.736Z,13.97
2022-11-15T01:35:41.180Z,14.37
2022-11-15T01:38:26.650Z,14.63
2022-11-15T01:41:25.048Z,14.77
2022-11-15T01:44:32.343Z,15.17
2022-11-15T01:47:26.036Z,13.40
2022-11-15T01:50:15.499Z,16.07
2022-11-15T01:53:00.752Z,17.33
2022-11-15T01:55:46.271Z,13.57
2022-11-15T01:58:31.564Z,14.37
2022-11-15T02:01:16.886Z,11.27
2022-11-15T02:04:08.998Z,12.33
2022-11-15T02:06:54.909Z,13.37
2022-11-15T02:09:41.083Z,13.63
2022-11-15T02:12:26.306Z,14.73
2022-11-15T02:15:12.712Z,14.47
2022-11-15T02:18:21.767Z,16.40
2022-11-15T02:21:40.601Z,15.63
2022-11-15T02:24:51.488Z,15.10
2022-11-15T02:27:48.801Z,14.80
2022-11-15T02:30:55.216Z,15.50
2022-11-15T02:34:08.774Z,14.33
2022-11-15T02:37:27.245Z,19.67
2022-11-15T02:40:18.441Z,13.87
2022-11-15T02:43:35.593Z,12.70
2022-11-15T02:47:13.118Z,13.33
2022-11-15T02:50:02.037Z,14.30
2022-11-15T02:52:49.673Z,14.63
2022-11-15T02:55:39.791Z,16.10
2022-11-15T02:58:27.647Z,13.07
2022-11-15T03:01:13.119Z,15.73
2022-11-15T03:04:11.013Z,15.93
2022-11-15T03:07:12.226Z,15.97
2022-11-15T03:09:57.841Z,17.17
2022-11-15T03:12:55.335Z,15.50
2022-11-15T03:15:54.745Z,15.77
2022-11-15T03:18:43.705Z,14.40
2022-11-15T03:21:31.477Z,16.93
2022-11-15T03:24:25.626Z,17.67
2022-11-15T03:27:16.749Z,17.00
2022-11-15T03:30:07.439Z,22.00
2022-11-15T03:32:57.562Z,16.30
2022-11-15T03:35:46.085Z,17.77
2022-11-15T03:38:33.140Z,18.50
2022-11-15T03:41:28.233Z,19.50
2022-11-15T03:44:41.494Z,18.80
2022-11-15T03:47:37.586Z,18.90
2022-11-15T03:50:25.179Z,18.23
2022-11-15T03:53:11.080Z,17.97
2022-11-15T03:55:56.481Z,19.97
2022-11-15T03:58:41.615Z,20.30
2022-11-15T04:01:26.981Z,20.43
2022-11-15T04:04:12.491Z,22.57
2022-11-15T04:06:57.862Z,19.30
2022-11-15T04:10:01.797Z,20.30
2022-11-15T04:12:49.785Z,26.47
2022-11-15T04:15:35.436Z,19.47
2022-11-15T04:18:21.209Z,22.77
2022-11-15T04:21:25.240Z,19.07
2022-11-15T04:24:16.220Z,23.63
2022-11-15T04:27:01.447Z,20.97
2022-11-15T04:29:46.758Z,23.20
2022-11-15T04:32:32.063Z,22.80
2022-11-15T04:35:17.431Z,21.77
2022-11-15T04:38:04.487Z,21.63
2022-11-15T04:40:49.953Z,20.57
2022-11-15T04:43:36.065Z,19.40
2022-11-15T04:46:22.076Z,21.17
2022-11-15T04:49:07.256Z,21.00
2022-11-15T04:51:52.764Z,19.13
2022-11-15T04:54:38.005Z,19.70
2022-11-15T04:57:23.320Z,22.93
2022-11-15T05:00:11.762Z,20.93
2022-11-15T05:03:16.290Z,19.77
2022-11-15T05:06:02.043Z,23.33
2022-11-15T05:08:47.829Z,24.03
2022-11-15T05:11:33.248Z,19.00
2022-11-15T05:14:18.452Z,25.43
2022-11-15T05:17:03.724Z,23.07
2022-11-15T05:19:49.261Z,19.70
2022-11-15T05:22:34.485Z,20.80
2022-11-15T05:25:19.959Z,19.93
2022-11-15T05:28:05.186Z,27.83
2022-11-15T05:30:50.632Z,19.73
2022-11-15T05:33:38.477Z,21.93
2022-11-15T05:36:29.770Z,21.23
2022-11-15T05:39:15.286Z,22.73
2022-11-15T05:42:11.863Z,23.60
2022-11-15T05:44:58.836Z,18.87
2022-11-15T05:47:45.966Z,19.80
2022-11-15T05:50:31.754Z,19.07
2022-11-15T05:53:20.580Z,21.07
2022-11-15T05:56:07.616Z,20.87
2022-11-15T05:58:59.775Z,22.90
2022-11-15T06:01:45.961Z,20.83
2022-11-15T06:04:31.439Z,21.17
2022-11-15T06:07:16.812Z,19.50
2022-11-15T06:10:02.852Z,18.37
2022-11-15T06:12:47.996Z,22.70
2022-11-15T06:15:35.560Z,19.70
2022-11-15T06:18:21.028Z,23.00
2022-11-15T06:21:07.320Z,23.10
2022-11-15T06:23:52.936Z,25.83
2022-11-15T06:26:38.310Z,28.23
2022-11-15T06:29:23.875Z,20.57
2022-11-15T06:32:09.260Z,20.43
2022-11-15T06:34:54.851Z,24.47
2022-11-15T06:37:40.332Z,21.90
2022-11-15T06:40:25.786Z,22.40
2022-11-15T06:43:11.067Z,19.57
2022-11-15T06:45:56.206Z,26.93
2022-11-15T06:48:41.318Z,17.53
2022-11-15T06:51:27.079Z,21.73
2022-11-15T06:54:12.417Z,19.60
2022-11-15T06:56:57.662Z,16.97
2022-11-15T06:59:42.851Z,17.67
2022-11-15T07:02:28.070Z,20.30
2022-11-15T07:05:14.298Z,20.47
2022-11-15T07:08:00.774Z,18.87
2022-11-15T07:10:46.407Z,19.10
2022-11-15T07:13:36.539Z,20.27
2022-11-15T07:16:22.254Z,20.40
2022-11-15T07:19:09.689Z,21.67
2022-11-15T07:21:55.135Z,19.83
2022-11-15T07:24:40.799Z,24.63
2022-11-15T07:27:26.277Z,19.37
2022-11-15T07:30:15.402Z,19.37
2022-11-15T07:33:02.234Z,18.50
2022-11-15T07:35:50.921Z,22.33
2022-11-15T07:38:42.569Z,20.33
2022-11-15T07:41:30.201Z,22.13
2022-11-15T07:44:15.527Z,24.10
2022-11-15T07:47:00.727Z,19.20
2022-11-15T07:49:47.311Z,19.37
2022-11-15T07:52:32.964Z,16.53
2022-11-15T07:55:18.471Z,17.73
2022-11-15T07:58:08.656Z,19.13
2022-11-15T08:00:54.841Z,16.40
2022-11-15T08:03:40.435Z,16.20
2022-11-15T08:06:25.812Z,15.90
2022-11-15T08:09:11.134Z,15.97
2022-11-15T08:11:56.685Z,17.90
2022-11-15T08:14:41.768Z,17.73
2022-11-15T08:17:27.459Z,16.87
2022-11-15T08:20:12.489Z,18.50
2022-11-15T08:23:02.761Z,15.03
2022-11-15T08:25:48.439Z,16.80
2022-11-15T08:28:33.980Z,16.60
2022-11-15T08:31:19.895Z,14.57
2022-11-15T08:34:06.282Z,15.37
2022-11-15T08:36:51.582Z,16.37
2022-11-15T08:39:37.198Z,12.77
2022-11-15T08:42:22.624Z,14.13
2022-11-15T08:45:09.490Z,14.40
2022-11-15T08:47:54.914Z,14.70
2022-11-15T08:50:40.841Z,11.87
2022-11-15T08:53:26.428Z,15.17
2022-11-15T08:56:13.462Z,13.80
2022-11-15T08:58:58.701Z,16.50
2022-11-15T09:01:43.946Z,14.10
2022-11-15T09:04:29.611Z,14.67
2022-11-15T09:07:15.481Z,12.77
2022-11-15T09:10:01.185Z,13.80
2022-11-15T09:12:49.462Z,15.47
2022-11-15T09:15:35.428Z,14.47
2022-11-15T09:18:23.483Z,13.23
2022-11-15T09:21:09.385Z,15.00
2022-11-15T09:23:54.902Z,13.57
2022-11-15T09:26:40.833Z,12.80
2022-11-15T09:29:26.267Z,12.43
2022-11-15T09:32:11.607Z,13.63
2022-11-15T09:34:57.296Z,15.63
2022-11-15T09:37:43.148Z,12.50
2022-11-15T09:40:28.852Z,17.97
2022-11-15T09:43:20.231Z,14.27
2022-11-15T09:46:18.944Z,11.03
2022-11-15T09:49:05.458Z,12.80
2022-11-15T09:52:05.001Z,16.00
2022-11-15T09:57:21.821Z,11.77
2022-11-15T10:00:46.391Z,14.40
2022-11-15T10:03:26.322Z,12.77
2022-11-15T10:05:56.570Z,12.93
2022-11-15T10:09:02.150Z,13.37
2022-11-15T10:11:39.744Z,14.60
2022-11-15T10:14:26.676Z,15.47
2022-11-15T10:17:21.388Z,11.13
2022-11-15T10:20:05.903Z,14.37
2022-11-15T10:22:40.072Z,11.00
2022-11-15T10:25:10.077Z,14.47
2022-11-15T10:27:37.374Z,10.73
2022-11-15T10:30:11.687Z,17.77
2022-11-15T10:32:38.741Z,10.93
2022-11-15T10:35:25.086Z,12.53
2022-11-15T10:37:52.185Z,10.57
2022-11-15T10:40:24.314Z,11.97
2022-11-15T10:43:11.518Z,11.13
2022-11-15T10:45:39.561Z,10.83
2022-11-15T10:48:15.730Z,10.83
2022-11-15T10:50:44.937Z,9.27
2022-11-15T10:53:41.630Z,11.53
2022-11-15T10:56:13.000Z,11.00
2022-11-15T10:58:43.015Z,10.90
2022-11-15T11:01:14.269Z,9.63
2022-11-15T11:03:42.481Z,11.10
2022-11-15T11:06:18.208Z,10.90
2022-11-15T11:08:59.515Z,12.53
2022-11-15T11:11:45.132Z,9.87
2022-11-15T11:14:28.073Z,9.53
2022-11-15T11:17:12.816Z,11.47
2022-11-15T11:19:54.697Z,9.87
2022-11-15T11:22:43.347Z,10.13
2022-11-15T11:25:27.561Z,11.53
2022-11-15T11:28:26.729Z,9.10
2022-11-15T11:31:29.852Z,9.57
2022-11-15T11:34:18.810Z,15.57
2022-11-15T11:36:54.541Z,13.80
2022-11-15T11:39:40.214Z,10.07
2022-11-15T11:42:29.797Z,11.23
2022-11-15T11:45:12.182Z,10.60
2022-11-15T11:48:03.666Z,7.13
2022-11-15T11:50:30.897Z,8.67
2022-11-15T11:53:04.576Z,8.97
2022-11-15T11:55:40.897Z,12.40
2022-11-15T11:58:20.784Z,11.83
2022-11-15T12:00:53.268Z,10.00
2022-11-15T12:03:39.214Z,9.03
2022-11-15T12:06:43.734Z,7.87
2022-11-15T12:09:43.581Z,7.80
2022-11-15T12:12:19.686Z,9.20
2022-11-15T12:14:56.662Z,5.67
2022-11-15T12:17:33.062Z,7.33
2022-11-15T12:20:04.522Z,6.13
2022-11-15T12:22:39.320Z,5.97
2022-11-15T12:25:16.678Z,8.00
2022-11-15T12:27:49.634Z,5.83
2022-11-15T12:30:19.947Z,6.27
2022-11-15T12:32:59.339Z,5.27
2022-11-15T12:35:38.868Z,5.00
2022-11-15T12:38:09.852Z,5.80
2022-11-15T12:41:18.831Z,7.70
2022-11-15T12:43:47.831Z,4.47
2022-11-15T12:46:31.746Z,4.80
2022-11-15T12:49:05.552Z,4.57
2022-11-15T12:51:44.906Z,5.30
2022-11-15T12:54:23.753Z,5.17
2022-11-15T12:57:08.849Z,5.40
2022-11-15T12:59:56.361Z,3.77
2022-11-15T13:02:37.242Z,2.67
2022-11-15T13:05:36.111Z,3.47
2022-11-15T13:08:03.207Z,3.53
2022-11-15T13:10:33.494Z,3.77
2022-11-15T13:13:08.462Z,3.80
2022-11-15T13:15:47.322Z,4.73
2022-11-15T13:18:31.533Z,4.87
2022-11-15T13:21:02.332Z,3.07
2022-11-15T13:23:30.263Z,3.57
2022-11-15T13:26:19.173Z,4.17
2022-11-15T13:28:50.562Z,3.63
2022-11-15T13:31:30.664Z,2.43
2022-11-15T13:34:02.425Z,2.60
2022-11-15T13:36:35.375Z,2.43
2022-11-15T13:39:07.089Z,3.67
2022-11-15T13:41:48.242Z,3.73
2022-11-15T13:44:28.697Z,3.93
2022-11-15T13:47:21.088Z,2.30
2022-11-15T13:49:48.129Z,2.00
2022-11-15T13:52:18.000Z,4.73
2022-11-15T13:54:52.301Z,4.87
2022-11-15T13:57:41.537Z,3.03
2022-11-15T14:00:45.290Z,4.27
2022-11-15T14:03:25.725Z,3.20
2022-11-15T14:06:07.930Z,2.83
2022-11-15T14:08:36.152Z,3.50
2022-11-15T14:11:17.763Z,2.63
2022-11-15T14:14:08.409Z,3.00
2022-11-15T14:16:43.131Z,1.17
2022-11-15T14:19:34.753Z,3.20
2022-11-15T14:22:21.534Z,1.90
2022-11-15T14:25:19.826Z,1.40
2022-11-15T14:28:09.761Z,5.10
2022-11-15T14:30:37.128Z,2.93
2022-11-15T14:33:21.857Z,1.27
2022-11-15T14:35:48.906Z,3.20
2022-11-15T14:38:15.733Z,1.50
2022-11-15T14:40:44.772Z,3.07
2022-11-15T14:43:12.845Z,3.93
2022-11-15T14:45:40.224Z,2.47
2022-11-15T14:48:07.424Z,2.73
2022-11-15T14:50:35.674Z,1.77
2022-11-15T14:53:02.821Z,1.97
2022-11-15T14:55:33.595Z,1.93
2022-11-15T14:58:00.753Z,2.43
2022-11-15T15:00:32.299Z,3.90
2022-11-15T15:03:03.398Z,3.20
2022-11-15T15:05:35.651Z,2.50
2022-11-15T15:08:02.877Z,3.67
2022-11-15T15:10:42.185Z,1.67
2022-11-15T15:13:17.677Z,4.13
2022-11-15T15:15:45.154Z,1.90
2022-11-15T15:18:12.470Z,1.23
2022-11-15T15:20:41.708Z,2.83
2022-11-15T15:23:19.855Z,2.37
2022-11-15T15:25:49.744Z,2.27
2022-11-15T15:28:16.866Z,1.20
2022-11-15T15:30:44.146Z,3.13
2022-11-15T15:33:11.127Z,2.30
2022-11-15T15:35:37.925Z,1.27
2022-11-15T15:38:05.530Z,0.80
2022-11-15T15:40:34.334Z,1.90
2022-11-15T15:43:01.229Z,2.50
2022-11-15T15:45:29.156Z,1.17
2022-11-15T15:47:56.457Z,3.70
2022-11-15T15:50:23.375Z,2.50
2022-11-15T15:52:52.706Z,2.50
2022-11-15T15:55:20.097Z,1.90
2022-11-15T15:57:47.146Z,1.73
2022-11-15T16:00:15.256Z,2.20
2022-11-15T16:02:42.702Z,1.17
2022-11-15T16:05:10.966Z,2.33
2022-11-15T16:07:38.965Z,1.93
2022-11-15T16:10:25.861Z,2.07
2022-11-15T16:12:53.985Z,1.17
2022-11-15T16:15:21.983Z,2.53
2022-11-15T16:17:56.756Z,1.93
2022-11-15T16:20:33.999Z,3.10
2022-11-15T16:23:07.555Z,1.60
2022-11-15T16:25:43.126Z,2.60
2022-11-15T16:28:37.164Z,1.77
2022-11-15T16:31:10.541Z,2.60
2022-11-15T16:33:38.111Z,2.80
2022-11-15T16:36:07.146Z,2.03
2022-11-15T16:38:34.761Z,2.43
2022-11-15T16:41:02.453Z,3.23
2022-11-15T16:43:29.369Z,3.30
2022-11-15T16:45:56.409Z,4.27
2022-11-15T16:48:25.623Z,3.03
2022-11-15T16:50:57.591Z,4.03
2022-11-15T16:53:26.175Z,3.90
2022-11-15T16:55:53.160Z,3.60
2022-11-15T16:58:21.670Z,2.50
2022-11-15T17:00:53.743Z,3.47
2022-11-15T17:03:22.257Z,4.07
2022-11-15T17:05:49.724Z,6.93
2022-11-15T17:08:16.700Z,2.87
2022-11-15T17:10:44.299Z,2.70
2022-11-15T17:13:14.272Z,2.93
2022-11-15T17:15:41.876Z,3.17
2022-11-15T17:18:12.901Z,2.37
2022-11-15T17:20:41.591Z,2.43
2022-11-15T17:23:14.841Z,4.90
2022-11-15T17:25:42.174Z,2.60
2022-11-15T17:28:09.015Z,3.83
2022-11-15T17:30:36.209Z,3.67
2022-11-15T17:33:03.120Z,3.83
2022-11-15T17:35:29.975Z,2.97
2022-11-15T17:37:56.824Z,9.67
2022-11-15T17:40:23.640Z,2.33
2022-11-15T17:42:50.416Z,2.47
2022-11-15T17:45:17.595Z,4.20
2022-11-15T17:47:44.489Z,4.70
2022-11-15T17:50:11.712Z,6.40
2022-11-15T17:52:38.775Z,2.57
2022-11-15T17:55:05.956Z,4.20
2022-11-15T17:57:32.736Z,2.10
2022-11-15T17:59:59.805Z,2.23
2022-11-15T18:02:26.877Z,2.03
2022-11-15T18:04:53.687Z,1.67
2022-11-15T18:07:21.212Z,1.70
2022-11-15T18:09:48.273Z,1.50
2022-11-15T18:12:15.306Z,2.10
2022-11-15T18:14:42.541Z,3.00
2022-11-15T18:17:09.719Z,2.10
2022-11-15T18:19:37.707Z,3.20
2022-11-15T18:22:07.417Z,1.80
2022-11-15T18:24:36.786Z,1.87
2022-11-15T18:27:05.694Z,3.27
2022-11-15T18:29:34.756Z,1.77
2022-11-15T18:32:05.044Z,2.53
2022-11-15T18:34:34.051Z,1.30
2022-11-15T18:37:02.997Z,1.87
2022-11-15T18:39:30.291Z,1.63
2022-11-15T18:41:57.288Z,1.80
2022-11-15T18:44:24.343Z,1.37
2022-11-15T18:46:51.214Z,4.63
2022-11-15T18:49:19.755Z,1.30
2022-11-15T18:51:47.896Z,1.07
2022-11-15T18:54:16.376Z,1.30
2022-11-15T18:56:44.675Z,1.20
2022-11-15T18:59:12.053Z,0.63
2022-11-15T19:01:41.189Z,1.90
2022-11-15T19:04:11.118Z,1.63
2022-11-15T19:06:43.092Z,3.00
2022-11-15T19:09:11.691Z,1.83
2022-11-15T19:11:39.996Z,2.37
2022-11-15T19:14:09.647Z,2.77
2022-11-15T19:16:45.166Z,2.17
2022-11-15T19:19:15.247Z,1.60
2022-11-15T19:21:42.423Z,1.30
2022-11-15T19:24:10.613Z,1.60
2022-11-15T19:26:38.040Z,1.53
2022-11-15T19:29:07.146Z,1.07
2022-11-15T19:31:34.265Z,2.80
2022-11-15T19:34:04.571Z,1.73
2022-11-15T19:36:34.380Z,2.53
2022-11-15T19:39:08.540Z,2.17
2022-11-15T19:41:42.130Z,1.23
2022-11-15T19:44:10.580Z,0.90
2022-11-15T19:46:38.369Z,2.40
2022-11-15T19:49:08.003Z,2.27
2022-11-15T19:51:35.046Z,2.00
2022-11-15T19:54:06.916Z,2.30
2022-11-15T19:56:35.240Z,2.53
2022-11-15T19:59:03.069Z,1.57
2022-11-15T20:01:32.395Z,1.17
2022-11-15T20:04:00.462Z,1.80
2022-11-15T20:06:30.107Z,1.13
2022-11-15T20:08:57.966Z,3.17
2022-11-15T20:11:26.058Z,3.83
2022-11-15T20:13:58.000Z,5.73
2022-11-15T20:16:25.411Z,1.73
2022-11-15T20:18:53.576Z,3.60
2022-11-15T20:21:21.945Z,2.57
2022-11-15T20:23:51.135Z,2.17
2022-11-15T20:26:19.592Z,1.70
2022-11-15T20:28:48.251Z,2.93
2022-11-15T20:31:16.228Z,3.10
2022-11-15T20:33:43.061Z,4.07
2022-11-15T20:36:12.651Z,1.10
2022-11-15T20:38:39.947Z,1.70
2022-11-15T20:41:07.381Z,2.37
2022-11-15T20:43:34.657Z,2.30
2022-11-15T20:46:01.653Z,2.57
2022-11-15T20:48:28.536Z,2.33
2022-11-15T20:51:11.916Z,1.70
2022-11-15T20:53:38.738Z,2.90
2022-11-15T20:56:08.687Z,3.30
2022-11-15T20:58:37.044Z,1.77
2022-11-15T21:01:05.969Z,2.10
2022-11-15T21:03:33.788Z,2.60
2022-11-15T21:06:00.998Z,2.10
2022-11-15T21:08:27.993Z,4.03
2022-11-15T21:11:13.779Z,4.30
2022-11-15T21:13:40.608Z,3.13
2022-11-15T21:16:07.856Z,2.40
2022-11-15T21:18:35.805Z,4.10
2022-11-15T21:21:04.905Z,2.43
2022-11-15T21:23:31.970Z,3.03
2022-11-15T21:25:59.368Z,3.13
2022-11-15T21:28:26.492Z,3.77
2022-11-15T21:30:58.416Z,3.30
2022-11-15T21:33:27.590Z,1.70
2022-11-15T21:35:57.805Z,2.73
2022-11-15T21:38:24.869Z,1.47
2022-11-15T21:40:53.123Z,3.67
2022-11-15T21:43:21.153Z,3.57
2022-11-15T21:46:00.440Z,5.37
2022-11-15T21:48:28.632Z,1.60
2022-11-15T21:51:01.058Z,3.43
2022-11-15T21:53:29.546Z,4.43
2022-11-15T21:55:56.265Z,3.40
2022-11-15T21:58:23.989Z,3.80
2022-11-15T22:01:09.348Z,2.87
2022-11-15T22:03:36.468Z,1.73
2022-11-15T22:06:03.451Z,4.73
2022-11-15T22:08:31.855Z,4.77
2022-11-15T22:10:59.269Z,2.47
2022-11-15T22:13:26.956Z,5.10
2022-11-15T22:15:54.765Z,2.40
2022-11-15T22:18:26.593Z,3.63
2022-11-15T22:21:05.049Z,4.53
2022-11-15T22:23:33.868Z,3.70
2022-11-15T22:26:01.009Z,2.47
2022-11-15T22:28:28.397Z,3.90
2022-11-15T22:30:56.050Z,2.77
2022-11-15T22:33:26.073Z,3.43
2022-11-15T22:35:53.863Z,2.40
2022-11-15T22:38:20.716Z,1.90
2022-11-15T22:40:47.730Z,4.53
2022-11-15T22:43:16.065Z,3.43
2022-11-15T22:45:52.368Z,4.43
2022-11-15T22:48:21.630Z,1.97
2022-11-15T22:50:48.482Z,2.77
2022-11-15T22:53:15.458Z,2.33
2022-11-15T22:55:42.366Z,5.70
2022-11-15T22:58:09.878Z,2.10
2022-11-15T23:00:37.482Z,3.23
2022-11-15T23:03:04.502Z,2.33
2022-11-15T23:05:31.247Z,4.07
2022-11-15T23:07:58.076Z,2.60
2022-11-15T23:10:43.565Z,3.83
2022-11-15T23:13:16.436Z,3.10
2022-11-15T23:16:04.347Z,2.97
2022-11-15T23:18:39.127Z,4.40
2022-11-15T23:21:10.034Z,3.23
2022-11-15T23:23:37.582Z,3.50
2022-11-15T23:26:05.415Z,3.23
2022-11-15T23:28:34.687Z,2.43
2022-11-15T23:31:24.561Z,2.70
2022-11-15T23:33:58.103Z,2.73
2022-11-15T23:36:27.031Z,3.73
2022-11-15T23:38:53.870Z,2.50
2022-11-15T23:41:21.946Z,3.33
2022-11-15T23:43:48.805Z,6.80
2022-11-15T23:46:16.350Z,2.20
2022-11-15T23:48:43.472Z,3.77
2022-11-15T23:51:10.521Z,3.47
2022-11-15T23:53:37.581Z,3.27
2022-11-15T23:56:12.158Z,2.70
2022-11-15T23:58:39.609Z,4.23
